Time;durP1;ratioP1;P1;durP2;ratioP2;P2;SDS_P1;SDS_P2;PMS_P1;PMS_P2;Temp;Humidity;BMP_temperature;BMP_pressure;BME280_temperature;BME280_humidity;BME280_pressure;Samples;Min_cycle;Max_cycle;Signal;HPM_P1;HPM_P2
2022/07/23 00:00:04;;;;;;;0.50;0.50;;;12.90;99.90;;;;;;5092379;28;20200;-74
2022/07/23 00:02:30;;;;;;;0.50;0.50;;;12.80;99.90;;;;;;5091382;28;20181;-74
2022/07/23 00:04:56;;;;;;;1.95;0.70;;;12.80;99.90;;;;;;5074012;28;20279;-74
2022/07/23 00:07:21;;;;;;;0.50;0.50;;;12.80;99.90;;;;;;5092522;28;20679;-74
2022/07/23 00:09:47;;;;;;;5.25;0.93;;;12.90;99.90;;;;;;5092202;28;20211;-74
2022/07/23 00:12:13;;;;;;;0.40;0.40;;;12.80;99.90;;;;;;5091579;28;20282;-75
2022/07/23 00:14:39;;;;;;;0.47;0.47;;;12.80;99.90;;;;;;5091782;28;20501;-74
2022/07/23 00:17:04;;;;;;;0.50;0.50;;;12.80;99.90;;;;;;5091798;28;20188;-75
2022/07/23 00:19:30;;;;;;;0.50;0.50;;;12.80;99.90;;;;;;5070176;28;20233;-75
2022/07/23 00:21:56;;;;;;;0.50;0.50;;;12.80;99.90;;;;;;5069767;28;20209;-75
2022/07/23 00:24:24;;;;;;;0.75;0.75;;;12.80;99.90;;;;;;5071201;28;20201;-75
2022/07/23 00:26:50;;;;;;;0.40;0.40;;;12.80;99.90;;;;;;5071601;28;20276;-76
2022/07/23 00:29:16;;;;;;;0.50;0.50;;;12.80;99.90;;;;;;5070434;28;20635;-75
2022/07/23 00:31:41;;;;;;;0.50;0.50;;;12.80;99.90;;;;;;5071510;28;20220;-74
2022/07/23 00:34:07;;;;;;;0.50;0.50;;;12.80;99.90;;;;;;5071791;28;20647;-74
2022/07/23 00:36:33;;;;;;;0.40;0.40;;;12.70;99.90;;;;;;5071438;28;20192;-74
2022/07/23 00:38:58;;;;;;;0.60;0.60;;;12.70;99.90;;;;;;5051129;28;20193;-75
2022/07/23 00:41:24;;;;;;;0.50;0.50;;;12.70;99.90;;;;;;5049754;28;20579;-75
2022/07/23 00:43:50;;;;;;;0.40;0.40;;;12.70;99.90;;;;;;5050441;28;20258;-75
2022/07/23 00:46:25;;;;;;;0.32;0.32;;;12.70;99.90;;;;;;5051560;28;20197;-75
2022/07/23 00:48:50;;;;;;;0.50;0.50;;;12.80;99.90;;;;;;5052055;28;20181;-75
2022/07/23 00:51:17;;;;;;;0.50;0.50;;;12.70;99.90;;;;;;5050355;28;20612;-77
2022/07/23 00:53:44;;;;;;;0.68;0.68;;;12.70;99.90;;;;;;5051284;28;20215;-74
2022/07/23 00:56:10;;;;;;;0.52;0.52;;;12.70;99.90;;;;;;5050792;28;20196;-74
2022/07/23 00:58:39;;;;;;;0.50;0.50;;;12.70;99.90;;;;;;5050667;28;20272;-73
2022/07/23 01:01:09;;;;;;;0.50;0.50;;;12.70;99.90;;;;;;5050000;28;20212;-75
2022/07/23 01:03:34;;;;;;;0.50;0.50;;;12.70;99.90;;;;;;5049833;28;20197;-75
2022/07/23 01:06:00;;;;;;;0.50;0.50;;;12.60;99.90;;;;;;5050371;28;20520;-75
2022/07/23 01:08:29;;;;;;;0.50;0.50;;;12.60;99.90;;;;;;5069928;28;20196;-74
2022/07/23 01:10:55;;;;;;;0.50;0.50;;;12.60;99.90;;;;;;5062399;28;20205;-75
2022/07/23 01:13:21;;;;;;;0.50;0.50;;;12.50;99.90;;;;;;5067816;28;20311;-75
2022/07/23 01:15:47;;;;;;;0.50;0.50;;;12.50;99.90;;;;;;5090600;28;20283;-76
2022/07/23 01:18:13;;;;;;;0.50;0.50;;;12.40;99.90;;;;;;5092667;28;20192;-75
2022/07/23 01:20:41;;;;;;;0.50;0.50;;;12.40;99.90;;;;;;5111144;28;20211;-76
2022/07/23 01:23:07;;;;;;;0.50;0.50;;;12.40;99.90;;;;;;5111794;28;20191;-75
2022/07/23 01:25:34;;;;;;;0.50;0.50;;;12.40;99.90;;;;;;5111427;28;20188;-75
2022/07/23 01:28:03;;;;;;;0.50;0.50;;;12.40;99.90;;;;;;5111803;28;20195;-75
2022/07/23 01:30:28;;;;;;;0.40;0.40;;;12.40;99.90;;;;;;5110974;28;20187;-74
2022/07/23 01:32:54;;;;;;;0.60;0.60;;;12.40;99.90;;;;;;5109647;28;20681;-75
2022/07/23 01:35:23;;;;;;;0.52;0.52;;;12.40;99.90;;;;;;5074277;28;20236;-75
2022/07/23 01:37:48;;;;;;;0.50;0.50;;;12.30;99.90;;;;;;5074795;28;20686;-75
2022/07/23 01:40:14;;;;;;;0.50;0.50;;;12.30;99.90;;;;;;5056989;28;20204;-75
2022/07/23 01:42:43;;;;;;;0.57;0.57;;;12.30;99.90;;;;;;5056666;28;20600;-75
2022/07/23 01:45:09;;;;;;;0.50;0.50;;;12.30;99.90;;;;;;5074330;28;20185;-73
2022/07/23 01:47:34;;;;;;;0.50;0.50;;;12.30;99.90;;;;;;5055980;28;20676;-74
2022/07/23 01:50:00;;;;;;;0.40;0.40;;;12.20;99.90;;;;;;5056628;28;20244;-74
2022/07/23 01:52:26;;;;;;;0.50;0.50;;;12.20;99.90;;;;;;5074106;28;20262;-72
2022/07/23 01:54:52;;;;;;;0.50;0.50;;;12.30;99.90;;;;;;5074045;28;20660;-72
2022/07/23 01:57:21;;;;;;;0.50;0.50;;;12.30;99.90;;;;;;5074008;28;20201;-73
2022/07/23 01:59:46;;;;;;;0.50;0.50;;;12.30;99.90;;;;;;5073929;28;20196;-74
2022/07/23 02:02:12;;;;;;;0.50;0.50;;;12.30;99.90;;;;;;5089787;28;20196;-73
2022/07/23 02:04:40;;;;;;;0.50;0.50;;;12.30;99.90;;;;;;5093539;28;20598;-74
2022/07/23 02:07:06;;;;;;;0.50;0.50;;;12.30;99.90;;;;;;5075825;28;20188;-74
2022/07/23 02:09:32;;;;;;;0.50;0.50;;;12.30;99.90;;;;;;5075525;28;20279;-73
2022/07/23 02:11:58;;;;;;;0.50;0.50;;;12.30;99.90;;;;;;5076220;28;20840;-73
2022/07/23 02:14:25;;;;;;;7.78;1.00;;;12.40;99.90;;;;;;5073357;28;20275;-74
2022/07/23 02:16:50;;;;;;;0.57;0.57;;;12.40;99.90;;;;;;5073700;28;20279;-74
2022/07/23 02:19:16;;;;;;;0.52;0.52;;;12.40;99.90;;;;;;5052314;28;20776;-74
2022/07/23 02:21:42;;;;;;;0.60;0.60;;;12.40;99.90;;;;;;5052265;28;20287;-73
2022/07/23 02:24:07;;;;;;;0.50;0.50;;;12.30;99.90;;;;;;5054048;28;20228;-74
2022/07/23 02:26:34;;;;;;;0.50;0.50;;;12.30;99.90;;;;;;5052306;28;20543;-74
2022/07/23 02:29:03;;;;;;;0.50;0.50;;;12.20;99.90;;;;;;5052194;28;20672;-74
2022/07/23 02:31:30;;;;;;;0.40;0.40;;;12.20;99.90;;;;;;5053218;28;20566;-75
2022/07/23 02:33:56;;;;;;;0.50;0.50;;;12.20;99.90;;;;;;5053352;28;20200;-75
2022/07/23 02:36:22;;;;;;;0.50;0.50;;;12.20;99.90;;;;;;5053903;28;20838;-76
2022/07/23 02:38:47;;;;;;;0.60;0.60;;;12.20;99.90;;;;;;5052546;28;20539;-76
2022/07/23 02:41:13;;;;;;;0.50;0.50;;;12.20;99.90;;;;;;5053108;28;20201;-75
2022/07/23 02:43:39;;;;;;;0.50;0.50;;;12.30;99.90;;;;;;5053001;28;20190;-74
2022/07/23 02:46:07;;;;;;;0.70;0.70;;;12.30;99.90;;;;;;5051482;28;20201;-77
2022/07/23 02:48:33;;;;;;;0.63;0.63;;;12.30;99.90;;;;;;5052934;28;20186;-74
2022/07/23 02:50:59;;;;;;;0.50;0.50;;;12.30;99.90;;;;;;5053711;28;20269;-75
2022/07/23 02:53:25;;;;;;;0.60;0.60;;;12.30;99.90;;;;;;5053300;28;20644;-75
2022/07/23 02:55:53;;;;;;;0.60;0.60;;;12.30;99.90;;;;;;5052409;28;20251;-75
2022/07/23 02:58:19;;;;;;;0.52;0.52;;;12.40;99.90;;;;;;5051686;28;20199;-75
2022/07/23 03:00:44;;;;;;;0.50;0.50;;;12.30;99.90;;;;;;5064507;28;20284;-75
2022/07/23 03:03:10;;;;;;;0.70;0.70;;;12.30;99.90;;;;;;5058852;28;20209;-74
2022/07/23 03:05:36;;;;;;;1.98;0.63;;;12.30;99.90;;;;;;5073078;28;20648;-75
2022/07/23 03:08:02;;;;;;;1.20;1.05;;;12.40;99.90;;;;;;5071866;28;20201;-74
2022/07/23 03:10:27;;;;;;;0.50;0.50;;;12.40;99.90;;;;;;5067455;28;20198;-74
2022/07/23 03:12:53;;;;;;;0.77;0.77;;;12.40;99.90;;;;;;5052908;28;20189;-75
2022/07/23 03:15:19;;;;;;;0.45;0.45;;;12.40;99.90;;;;;;5053023;28;20193;-74
2022/07/23 03:17:44;;;;;;;0.50;0.50;;;12.40;99.90;;;;;;5055443;28;20205;-74
2022/07/23 03:20:10;;;;;;;1.30;0.80;;;12.40;99.90;;;;;;5090024;28;20254;-75
2022/07/23 03:22:36;;;;;;;0.60;0.60;;;12.40;99.90;;;;;;5091068;28;20245;-73
2022/07/23 03:25:02;;;;;;;0.50;0.50;;;12.40;99.90;;;;;;5091187;28;20659;-75
2022/07/23 03:27:31;;;;;;;0.50;0.50;;;12.40;99.90;;;;;;5092411;28;20279;-76
2022/07/23 03:29:58;;;;;;;0.50;0.50;;;12.40;99.90;;;;;;5092652;28;20223;-75
2022/07/23 03:32:24;;;;;;;0.50;0.50;;;12.40;99.90;;;;;;5074089;28;20203;-75
2022/07/23 03:34:51;;;;;;;0.50;0.50;;;12.40;99.90;;;;;;5092466;28;20351;-75
2022/07/23 03:37:17;;;;;;;0.50;0.50;;;12.40;99.90;;;;;;5092383;28;20275;-75
2022/07/23 03:39:43;;;;;;;0.50;0.50;;;12.40;99.90;;;;;;5074049;28;20196;-75
2022/07/23 03:42:09;;;;;;;0.50;0.50;;;12.40;99.90;;;;;;5092308;28;20195;-75
2022/07/23 03:44:37;;;;;;;0.60;0.60;;;12.40;99.90;;;;;;5073936;28;20192;-75
2022/07/23 03:47:04;;;;;;;0.47;0.47;;;12.50;99.90;;;;;;5073849;28;20192;-74
2022/07/23 03:49:31;;;;;;;0.68;0.68;;;12.50;99.90;;;;;;5073772;28;20189;-75
2022/07/23 03:51:57;;;;;;;0.40;0.40;;;12.50;99.90;;;;;;5092047;28;20402;-75
2022/07/23 03:54:23;;;;;;;0.57;0.55;;;12.50;99.90;;;;;;5091812;28;20191;-74
2022/07/23 03:56:48;;;;;;;0.55;0.55;;;12.50;99.90;;;;;;5073101;28;20593;-75
2022/07/23 03:59:15;;;;;;;0.50;0.50;;;12.50;99.90;;;;;;5091296;28;20200;-75
2022/07/23 04:01:40;;;;;;;0.50;0.50;;;12.50;99.90;;;;;;5091945;28;20239;-74
2022/07/23 04:04:08;;;;;;;0.60;0.60;;;12.60;99.90;;;;;;5073568;28;20666;-75
2022/07/23 04:06:36;;;;;;;0.73;0.73;;;12.60;99.90;;;;;;5091683;28;20219;-74
2022/07/23 04:09:03;;;;;;;0.50;0.50;;;12.60;99.90;;;;;;5091688;28;20271;-75
2022/07/23 04:11:29;;;;;;;0.50;0.50;;;12.70;99.90;;;;;;5096821;28;20211;-75
2022/07/23 04:13:54;;;;;;;0.40;0.40;;;12.70;99.90;;;;;;5072804;28;20200;-75
2022/07/23 04:16:25;;;;;;;2.63;0.70;;;12.70;99.90;;;;;;5091563;28;20658;-75
2022/07/23 04:18:51;;;;;;;0.40;0.40;;;12.80;99.90;;;;;;5091650;28;20227;-75
2022/07/23 04:21:17;;;;;;;0.50;0.50;;;12.80;99.90;;;;;;5073395;28;20213;-75
2022/07/23 04:23:42;;;;;;;0.50;0.50;;;12.90;99.90;;;;;;5091311;28;20192;-75
2022/07/23 04:26:08;;;;;;;0.50;0.50;;;12.90;99.90;;;;;;5091859;28;20218;-75
2022/07/23 04:28:37;;;;;;;0.85;0.60;;;12.90;99.90;;;;;;5091394;28;20267;-75
2022/07/23 04:31:02;;;;;;;0.50;0.50;;;12.90;99.90;;;;;;5073397;28;20204;-75
2022/07/23 04:33:28;;;;;;;0.50;0.50;;;13.00;99.90;;;;;;5091206;28;20196;-74
2022/07/23 04:35:54;;;;;;;0.50;0.50;;;13.10;99.90;;;;;;5073259;28;20216;-75
2022/07/23 04:38:20;;;;;;;0.75;0.63;;;13.20;99.90;;;;;;5072500;28;20632;-75
2022/07/23 04:40:46;;;;;;;0.50;0.50;;;13.20;99.90;;;;;;5072995;28;20219;-72
2022/07/23 04:43:11;;;;;;;0.40;0.40;;;13.20;99.90;;;;;;5091435;28;20185;-75
2022/07/23 04:45:37;;;;;;;0.40;0.40;;;13.30;99.90;;;;;;5073285;28;20419;-75
2022/07/23 04:48:03;;;;;;;0.50;0.50;;;13.40;99.90;;;;;;5073108;28;20196;-75
2022/07/23 04:50:29;;;;;;;0.50;0.50;;;13.50;99.90;;;;;;5072988;28;20211;-74
2022/07/23 04:52:54;;;;;;;0.32;0.32;;;13.60;99.90;;;;;;5076328;28;20201;-75
2022/07/23 04:55:20;;;;;;;0.60;0.60;;;13.70;99.90;;;;;;5071535;28;20276;-74
2022/07/23 04:57:46;;;;;;;0.50;0.50;;;13.70;99.90;;;;;;5070986;28;20558;-74
2022/07/23 05:00:12;;;;;;;0.50;0.50;;;13.80;99.90;;;;;;5065840;28;20208;-74
2022/07/23 05:02:38;;;;;;;0.60;0.60;;;13.80;99.90;;;;;;5091112;28;20196;-74
2022/07/23 05:05:04;;;;;;;0.40;0.40;;;13.90;99.90;;;;;;5073133;28;20194;-73
2022/07/23 05:07:30;;;;;;;0.60;0.60;;;14.00;99.90;;;;;;5072816;28;20677;-74
2022/07/23 05:09:55;;;;;;;1.38;1.10;;;14.20;99.90;;;;;;5093660;28;20188;-75
2022/07/23 05:12:21;;;;;;;0.40;0.40;;;14.40;99.90;;;;;;5094947;28;20188;-75
2022/07/23 05:14:47;;;;;;;0.40;0.40;;;14.50;99.90;;;;;;5095199;28;20596;-74
2022/07/23 05:17:12;;;;;;;0.40;0.40;;;14.50;99.90;;;;;;5076722;28;20204;-74
2022/07/23 05:19:38;;;;;;;0.40;0.40;;;14.40;99.90;;;;;;5057789;28;20340;-74
2022/07/23 05:22:04;;;;;;;0.40;0.40;;;14.30;99.90;;;;;;5054647;28;20216;-75
2022/07/23 05:24:30;;;;;;;0.55;0.55;;;14.40;99.90;;;;;;5054539;28;20190;-75
2022/07/23 05:26:58;;;;;;;0.50;0.50;;;14.40;99.90;;;;;;5053490;28;20190;-75
2022/07/23 05:29:24;;;;;;;0.60;0.60;;;14.40;99.90;;;;;;5054382;28;20275;-75
2022/07/23 05:31:49;;;;;;;0.50;0.50;;;14.40;99.90;;;;;;5053084;28;20665;-74
2022/07/23 05:34:15;;;;;;;0.40;0.40;;;14.30;99.90;;;;;;5053320;28;20202;-75
2022/07/23 05:36:41;;;;;;;0.50;0.50;;;14.20;99.90;;;;;;5052979;28;20560;-75
2022/07/23 05:39:07;;;;;;;0.50;0.50;;;14.20;99.90;;;;;;5054384;28;20202;-75
2022/07/23 05:41:32;;;;;;;0.43;0.43;;;14.20;99.90;;;;;;5054003;28;20213;-76
2022/07/23 05:43:58;;;;;;;0.40;0.40;;;14.30;99.90;;;;;;5054179;28;20332;-68
2022/07/23 05:46:24;;;;;;;0.43;0.43;;;14.30;99.90;;;;;;5054036;28;20409;-68
2022/07/23 05:48:49;;;;;;;0.40;0.40;;;14.70;99.90;;;;;;5064364;28;20207;-68
2022/07/23 05:51:23;;;;;;;0.40;0.40;;;15.00;99.90;;;;;;5072578;28;20203;-69
2022/07/23 05:53:49;;;;;;;0.40;0.40;;;15.20;99.90;;;;;;5073875;28;20189;-68
2022/07/23 05:56:15;;;;;;;0.30;0.30;;;15.00;99.90;;;;;;5072447;28;20205;-69
2022/07/23 05:58:41;;;;;;;0.85;0.75;;;15.10;99.90;;;;;;5072462;28;20544;-68
2022/07/23 06:01:07;;;;;;;0.40;0.40;;;15.40;99.90;;;;;;5073729;28;20215;-69
2022/07/23 06:03:32;;;;;;;0.40;0.40;;;15.90;99.90;;;;;;5072625;28;20196;-67
2022/07/23 06:05:58;;;;;;;0.40;0.40;;;16.10;99.90;;;;;;5073764;28;20711;-69
2022/07/23 06:08:24;;;;;;;0.40;0.40;;;16.30;99.90;;;;;;5073543;28;20192;-69
2022/07/23 06:10:49;;;;;;;0.47;0.47;;;16.50;99.90;;;;;;5073474;28;20639;-69
2022/07/23 06:13:18;;;;;;;0.38;0.38;;;16.40;99.90;;;;;;5072316;28;20291;-68
2022/07/23 06:15:43;;;;;;;0.30;0.30;;;16.10;99.90;;;;;;5059751;28;20190;-68
2022/07/23 06:18:09;;;;;;;0.93;0.50;;;16.10;99.90;;;;;;5054207;28;20258;-68
2022/07/23 06:20:38;;;;;;;0.55;0.55;;;16.00;99.90;;;;;;5072178;28;20270;-69
2022/07/23 06:23:04;;;;;;;0.47;0.47;;;16.00;99.90;;;;;;5055408;28;20655;-70
2022/07/23 06:25:32;;;;;;;0.40;0.40;;;15.90;99.90;;;;;;5073286;28;20189;-68
2022/07/23 06:27:58;;;;;;;0.40;0.40;;;16.00;99.90;;;;;;5055285;28;20201;-68
2022/07/23 06:30:23;;;;;;;0.30;0.30;;;16.10;99.90;;;;;;5073096;28;20197;-68
2022/07/23 06:32:50;;;;;;;0.30;0.30;;;16.40;99.90;;;;;;5055332;28;20556;-68
2022/07/23 06:35:16;;;;;;;0.30;0.30;;;16.70;99.90;;;;;;5073189;28;20690;-68
2022/07/23 06:37:42;;;;;;;0.30;0.30;;;16.80;99.90;;;;;;5055069;28;20649;-68
2022/07/23 06:40:09;;;;;;;0.45;0.45;;;17.00;99.90;;;;;;5073092;28;20541;-67
2022/07/23 06:42:36;;;;;;;0.30;0.30;;;17.00;99.90;;;;;;5072837;28;20268;-68
2022/07/23 06:45:03;;;;;;;0.30;0.30;;;16.90;99.90;;;;;;5084499;28;20287;-69
2022/07/23 06:47:29;;;;;;;0.52;0.52;;;16.70;99.90;;;;;;5093127;28;20234;-69
2022/07/23 06:49:55;;;;;;;0.32;0.32;;;16.90;99.90;;;;;;5093228;28;20503;-69
2022/07/23 06:52:20;;;;;;;0.40;0.40;;;17.10;99.90;;;;;;5092852;28;20207;-69
2022/07/23 06:54:46;;;;;;;0.85;0.57;;;17.10;99.90;;;;;;5093118;28;20192;-69
2022/07/23 06:57:12;;;;;;;0.40;0.40;;;17.10;99.90;;;;;;5093097;28;20203;-68
2022/07/23 06:59:40;;;;;;;0.70;0.70;;;17.30;99.90;;;;;;5092804;28;20221;-67
2022/07/23 07:02:07;;;;;;;0.30;0.30;;;17.20;99.90;;;;;;5074791;28;20216;-68
2022/07/23 07:04:33;;;;;;;0.30;0.30;;;17.20;99.90;;;;;;5092639;28;20207;-69
2022/07/23 07:06:58;;;;;;;0.30;0.30;;;17.30;99.90;;;;;;5092854;28;20184;-68
2022/07/23 07:09:24;;;;;;;0.20;0.20;;;17.20;99.90;;;;;;5092571;28;20192;-68
2022/07/23 07:11:50;;;;;;;0.38;0.38;;;17.00;99.90;;;;;;5079571;28;20196;-68
2022/07/23 07:14:17;;;;;;;0.47;0.47;;;17.10;99.90;;;;;;5072421;28;20203;-70
2022/07/23 07:16:42;;;;;;;0.20;0.20;;;16.90;99.90;;;;;;5072433;28;20711;-69
2022/07/23 07:19:08;;;;;;;0.47;0.47;;;16.80;99.90;;;;;;5072303;28;20312;-69
2022/07/23 07:21:34;;;;;;;0.50;0.50;;;16.80;99.90;;;;;;5054069;28;20220;-70
2022/07/23 07:24:00;;;;;;;0.50;0.50;;;16.80;99.90;;;;;;5072418;28;20272;-68
2022/07/23 07:26:25;;;;;;;0.50;0.50;;;16.90;99.90;;;;;;5054010;28;20707;-71
2022/07/23 07:28:51;;;;;;;0.30;0.30;;;16.90;99.90;;;;;;5072110;28;20212;-69
2022/07/23 07:31:17;;;;;;;0.40;0.40;;;17.00;99.90;;;;;;5071987;28;20197;-70
2022/07/23 07:33:42;;;;;;;0.50;0.50;;;17.30;99.90;;;;;;5071952;28;20201;-70
2022/07/23 07:36:08;;;;;;;0.40;0.40;;;17.30;99.90;;;;;;5072024;28;20242;-70
2022/07/23 07:38:34;;;;;;;0.30;0.30;;;17.40;99.90;;;;;;5071820;28;20632;-69
2022/07/23 07:41:00;;;;;;;0.30;0.30;;;17.90;99.90;;;;;;5080878;28;20196;-69
2022/07/23 07:43:25;;;;;;;0.40;0.40;;;18.00;99.90;;;;;;5091968;28;20181;-69
2022/07/23 07:45:52;;;;;;;0.38;0.38;;;17.70;99.90;;;;;;5092006;28;20556;-69
2022/07/23 07:48:18;;;;;;;0.40;0.40;;;17.50;99.90;;;;;;5073617;28;20203;-69
2022/07/23 07:50:43;;;;;;;0.30;0.30;;;17.60;99.90;;;;;;5091945;28;20562;-69
2022/07/23 07:53:10;;;;;;;0.28;0.28;;;17.80;99.90;;;;;;5092053;28;20196;-68
2022/07/23 07:55:38;;;;;;;0.30;0.30;;;18.00;99.90;;;;;;5073493;28;20295;-70
2022/07/23 07:58:04;;;;;;;0.73;0.73;;;18.10;99.90;;;;;;5091833;28;20565;-70
2022/07/23 08:00:31;;;;;;;0.20;0.20;;;18.40;99.90;;;;;;5073731;28;20196;-69
2022/07/23 08:02:56;;;;;;;0.30;0.30;;;18.40;99.90;;;;;;5091775;28;20180;-69
2022/07/23 08:05:24;;;;;;;0.30;0.30;;;18.30;99.90;;;;;;5091558;28;20241;-69
2022/07/23 08:07:50;;;;;;;0.35;0.35;;;18.40;99.90;;;;;;5091676;28;20196;-68
2022/07/23 08:10:17;;;;;;;0.40;0.40;;;18.70;99.90;;;;;;5088518;28;20272;-69
2022/07/23 08:12:48;;;;;;;0.50;0.50;;;19.10;99.90;;;;;;5071454;28;20246;-70
2022/07/23 08:15:16;;;;;;;0.40;0.40;;;19.00;99.90;;;;;;5053091;28;20204;-70
2022/07/23 08:17:43;;;;;;;0.30;0.30;;;18.90;99.90;;;;;;5091474;28;20253;-70
2022/07/23 08:20:11;;;;;;;0.55;0.55;;;18.90;99.90;;;;;;5091338;28;20232;-69
2022/07/23 08:22:46;;;;;;;0.30;0.30;;;19.20;99.90;;;;;;5073152;28;20578;-70
2022/07/23 08:25:14;;;;;;;0.30;0.30;;;19.70;99.90;;;;;;5091477;28;20199;-69
2022/07/23 08:27:40;;;;;;;0.20;0.20;;;20.10;99.90;;;;;;5072156;28;20207;-69
2022/07/23 08:30:06;;;;;;;0.30;0.30;;;20.20;99.90;;;;;;5091459;28;20635;-67
2022/07/23 08:32:32;;;;;;;0.28;0.28;;;20.50;99.90;;;;;;5091220;28;20523;-70
2022/07/23 08:34:58;;;;;;;0.20;0.20;;;21.10;99.90;;;;;;5091435;28;20279;-70
2022/07/23 08:37:23;;;;;;;2.92;1.13;;;21.60;99.90;;;;;;5090841;28;20572;-70
2022/07/23 08:39:49;;;;;;;0.20;0.20;;;22.10;99.90;;;;;;5091398;28;20239;-70
2022/07/23 08:42:15;;;;;;;0.20;0.20;;;21.80;99.90;;;;;;5073176;28;20218;-70
2022/07/23 08:44:45;;;;;;;0.75;0.40;;;21.60;99.90;;;;;;5090486;28;20655;-70
2022/07/23 08:47:15;;;;;;;0.40;0.40;;;20.70;99.90;;;;;;5091301;28;20184;-69
2022/07/23 08:49:41;;;;;;;0.17;0.17;;;20.30;99.90;;;;;;5091063;28;20188;-70
2022/07/23 08:52:07;;;;;;;0.38;0.30;;;20.20;99.90;;;;;;5091335;28;20245;-70
2022/07/23 08:54:34;;;;;;;0.20;0.20;;;20.70;99.90;;;;;;5091325;28;20694;-70
2022/07/23 08:57:00;;;;;;;0.28;0.28;;;20.90;99.90;;;;;;5091143;28;20200;-70
2022/07/23 08:59:26;;;;;;;0.20;0.20;;;21.20;99.90;;;;;;5072811;28;20196;-69
2022/07/23 09:01:52;;;;;;;0.30;0.30;;;20.90;99.90;;;;;;5090945;28;20204;-70
2022/07/23 09:04:18;;;;;;;0.30;0.30;;;20.30;99.90;;;;;;5060249;28;20188;-70
2022/07/23 09:06:44;;;;;;;0.30;0.30;;;20.20;99.90;;;;;;5070863;28;20185;-70
2022/07/23 09:09:18;;;;;;;0.32;0.30;;;20.40;99.90;;;;;;5071115;28;20208;-69
2022/07/23 09:11:48;;;;;;;0.30;0.30;;;20.40;99.90;;;;;;5071047;28;20185;-70
2022/07/23 09:14:13;;;;;;;0.20;0.20;;;20.50;99.90;;;;;;5070824;28;20267;-70
2022/07/23 09:16:39;;;;;;;0.38;0.38;;;20.80;99.90;;;;;;5052609;28;20227;-70
2022/07/23 09:19:07;;;;;;;0.20;0.20;;;20.70;99.90;;;;;;5070850;28;20286;-69
2022/07/23 09:21:33;;;;;;;0.20;0.20;;;20.80;99.90;;;;;;5070425;28;20248;-69
2022/07/23 09:24:11;;;;;;;0.30;0.30;;;21.20;99.90;;;;;;5070965;28;20192;-69
2022/07/23 09:26:45;;;;;;;0.28;0.28;;;21.40;99.90;;;;;;5070443;28;20197;-70
2022/07/23 09:29:25;;;;;;;0.38;0.30;;;21.00;99.90;;;;;;5052650;28;20192;-70
2022/07/23 09:31:59;;;;;;;0.20;0.20;;;20.80;99.90;;;;;;5070642;28;20189;-70
2022/07/23 09:34:30;;;;;;;0.30;0.30;;;20.90;99.90;;;;;;5087007;28;20196;-69
2022/07/23 09:37:08;;;;;;;0.20;0.20;;;20.60;99.90;;;;;;5072553;28;20199;-68
2022/07/23 09:39:34;;;;;;;0.30;0.30;;;21.10;99.90;;;;;;5090514;28;20227;-69
2022/07/23 09:42:26;;;;;;;0.10;0.10;;;21.20;99.90;;;;;;5090886;28;20208;-69
2022/07/23 09:44:57;;;;;;;0.30;0.30;;;21.20;99.90;;;;;;5068221;28;20196;-70
2022/07/23 09:47:26;;;;;;;0.40;0.40;;;21.50;99.90;;;;;;5072309;28;20294;-70
2022/07/23 09:50:09;;;;;;;0.20;0.20;;;21.10;99.90;;;;;;5090713;28;20211;-71
2022/07/23 09:52:49;;;;;;;0.20;0.20;;;20.80;99.90;;;;;;5090576;28;20269;-70
2022/07/23 09:55:16;;;;;;;0.30;0.30;;;20.90;99.90;;;;;;5090677;28;20271;-69
2022/07/23 09:57:45;;;;;;;0.30;0.30;;;20.90;99.90;;;;;;5094152;28;20569;-69
2022/07/23 10:00:12;;;;;;;0.30;0.30;;;20.80;99.90;;;;;;5084636;28;20184;-70
2022/07/23 10:02:39;;;;;;;0.38;0.38;;;21.10;99.90;;;;;;5055533;28;20378;-69
2022/07/23 10:05:05;;;;;;;0.20;0.20;;;21.60;99.90;;;;;;5073786;28;20677;-69
2022/07/23 10:07:34;;;;;;;4.00;0.65;;;21.60;99.90;;;;;;5073615;28;20276;-70
2022/07/23 10:10:01;;;;;;;0.30;0.30;;;21.50;99.90;;;;;;5073567;28;20188;-69
2022/07/23 10:15:24;;;;;;;0.28;0.28;;;20.70;99.90;;;;;;5042431;28;20205;-70
2022/07/23 10:17:50;;;;;;;0.20;0.20;;;20.20;99.90;;;;;;5073644;28;20196;-69
2022/07/23 10:20:16;;;;;;;0.20;0.20;;;20.20;99.90;;;;;;5073824;28;20228;-70
2022/07/23 10:22:53;;;;;;;0.10;0.10;;;20.40;99.90;;;;;;5055429;28;20220;-70
2022/07/23 10:25:41;;;;;;;0.30;0.30;;;20.80;99.90;;;;;;5073356;28;20188;-69
2022/07/23 10:28:22;;;;;;;0.30;0.30;;;21.00;99.90;;;;;;5073455;28;20189;-70
2022/07/23 10:31:25;;;;;;;0.20;0.20;;;21.20;99.90;;;;;;5072932;28;20198;-71
2022/07/23 10:34:03;;;;;;;0.20;0.20;;;21.80;99.90;;;;;;5093615;28;20184;-70
2022/07/23 10:36:50;;;;;;;0.20;0.20;;;22.70;99.90;;;;;;5093767;28;20663;-70
2022/07/23 10:39:31;;;;;;;0.20;0.20;;;23.10;99.90;;;;;;5093486;28;20188;-70
2022/07/23 10:42:09;;;;;;;0.40;0.40;;;23.00;99.90;;;;;;5075059;28;20744;-69
2022/07/23 10:44:44;;;;;;;0.20;0.20;;;23.30;99.90;;;;;;5093121;28;20253;-70
2022/07/23 10:49:40;;;;;;;0.20;0.20;;;23.80;99.90;;;;;;5093266;28;20238;-70
2022/07/23 10:52:14;;;;;;;0.15;0.15;;;23.50;99.90;;;;;;5093216;28;20196;-70
2022/07/23 10:54:53;;;;;;;0.20;0.20;;;23.30;99.90;;;;;;5092973;28;20715;-70
2022/07/23 10:57:26;;;;;;;0.28;0.28;;;23.40;99.90;;;;;;5076059;28;20192;-70
2022/07/23 11:00:01;;;;;;;0.28;0.25;;;23.40;99.90;;;;;;5072785;28;20197;-70
2022/07/23 11:02:31;;;;;;;0.32;0.32;;;23.40;99.90;;;;;;5072439;28;20196;-70
2022/07/23 11:05:09;;;;;;;0.20;0.20;;;23.50;99.90;;;;;;5072624;28;20250;-70
2022/07/23 11:07:36;;;;;;;0.25;0.25;;;23.80;99.90;;;;;;5072087;28;20192;-70
2022/07/23 11:10:03;;;;;;;0.20;0.20;;;23.90;99.90;;;;;;5072340;28;20626;-69
2022/07/23 11:12:28;;;;;;;0.30;0.30;;;23.80;99.90;;;;;;5072411;28;20242;-70
2022/07/23 11:15:09;;;;;;;0.28;0.28;;;23.40;99.90;;;;;;5054540;28;20193;-70
2022/07/23 11:17:54;;;;;;;0.20;0.20;;;22.70;99.90;;;;;;5072300;28;20188;-69
2022/07/23 11:20:24;;;;;;;0.20;0.20;;;22.50;99.90;;;;;;5053411;28;20232;-69
2022/07/23 11:22:59;;;;;;;0.20;0.20;;;22.30;99.90;;;;;;5072309;28;20279;-69
2022/07/23 11:25:24;;;;;;;0.20;0.20;;;22.20;99.90;;;;;;5076149;28;20270;-70
2022/07/23 11:27:51;;;;;;;0.65;0.20;;;22.40;99.90;;;;;;5092552;28;20329;-70
2022/07/23 11:30:26;;;;;;;1.10;0.63;;;22.90;99.90;;;;;;5092312;28;20227;-69
2022/07/23 11:32:53;;;;;;;0.10;0.10;;;22.90;99.90;;;;;;5092398;28;20624;-70
2022/07/23 11:35:20;;;;;;;0.10;0.10;;;22.80;99.90;;;;;;5074146;28;20248;-68
2022/07/23 11:37:47;;;;;;;0.30;0.30;;;22.90;99.90;;;;;;5092363;28;20601;-70
2022/07/23 11:40:16;;;;;;;0.75;0.40;;;22.80;99.90;;;;;;5092394;28;20200;-69
2022/07/23 11:43:03;;;;;;;0.20;0.20;;;22.90;99.90;;;;;;5092185;28;20258;-70
2022/07/23 11:45:37;;;;;;;0.25;0.25;;;22.90;99.90;;;;;;5074000;28;20272;-70
2022/07/23 11:48:05;;;;;;;0.10;0.10;;;23.10;99.90;;;;;;5092291;28;20274;-70
2022/07/23 11:50:31;;;;;;;2.28;0.73;;;23.30;99.90;;;;;;5092070;28;20639;-70
2022/07/23 11:52:57;;;;;;;0.17;0.17;;;23.40;99.90;;;;;;5062186;28;20231;-70
2022/07/23 11:55:24;;;;;;;0.20;0.20;;;23.30;99.90;;;;;;5071645;28;20224;-70
2022/07/23 11:57:51;;;;;;;0.20;0.20;;;23.30;99.90;;;;;;5071765;28;20543;-70
2022/07/23 12:00:20;;;;;;;0.30;0.30;;;23.50;99.90;;;;;;5071583;28;20200;-69
2022/07/23 12:02:55;;;;;;;0.20;0.20;;;23.50;99.90;;;;;;5071578;28;20602;-70
2022/07/23 12:05:24;;;;;;;0.20;0.20;;;23.00;99.90;;;;;;5053816;28;20225;-69
2022/07/23 12:07:52;;;;;;;0.20;0.20;;;22.80;99.90;;;;;;5071666;28;20197;-70
2022/07/23 12:10:17;;;;;;;0.10;0.10;;;23.10;99.90;;;;;;5071323;28;20185;-71
2022/07/23 12:12:49;;;;;;;0.10;0.10;;;23.60;99.90;;;;;;5053648;28;20200;-70
2022/07/23 12:15:15;;;;;;;0.20;0.20;;;24.00;99.90;;;;;;5071516;28;20200;-69
2022/07/23 12:17:44;;;;;;;0.10;0.10;;;24.40;99.90;;;;;;5071076;28;20204;-70
2022/07/23 12:20:13;;;;;;;0.20;0.20;;;24.70;99.90;;;;;;5070820;28;20319;-70
2022/07/23 12:22:44;;;;;;;0.30;0.25;;;24.30;99.90;;;;;;5083607;28;20188;-70
2022/07/23 12:25:12;;;;;;;0.70;0.38;;;24.60;99.90;;;;;;5091630;28;20260;-69
2022/07/23 12:27:39;;;;;;;0.10;0.10;;;24.90;99.90;;;;;;5091400;28;20199;-71
2022/07/23 12:30:22;;;;;;;0.10;0.10;;;25.20;99.90;;;;;;5091350;28;20200;-70
2022/07/23 12:32:51;;;;;;;0.20;0.20;;;25.10;99.90;;;;;;5091480;28;20643;-70
2022/07/23 12:35:17;;;;;;;0.10;0.10;;;24.80;99.90;;;;;;5073289;28;20215;-69
2022/07/23 12:37:45;;;;;;;0.20;0.20;;;25.10;99.90;;;;;;5091301;28;20189;-69
2022/07/23 12:40:29;;;;;;;0.10;0.10;;;25.60;99.90;;;;;;5091395;28;20192;-69
2022/07/23 12:42:54;;;;;;;0.10;0.10;;;25.80;99.90;;;;;;5091383;28;20195;-69
2022/07/23 12:45:20;;;;;;;0.10;0.10;;;25.80;99.90;;;;;;5091217;28;20192;-70
2022/07/23 12:48:05;;;;;;;0.10;0.10;;;25.90;99.90;;;;;;5073147;28;20192;-70
2022/07/23 12:51:01;;;;;;;0.80;0.32;;;26.10;99.90;;;;;;5070928;28;20273;-70
2022/07/23 12:53:33;;;;;;;0.20;0.20;;;26.20;99.90;;;;;;5036407;28;20208;-70
2022/07/23 12:55:59;;;;;;;0.10;0.10;;;25.80;99.90;;;;;;5070914;28;20570;-69